Time;durP1;ratioP1;P1;durP2;ratioP2;P2;SDS_P1;SDS_P2;PMS_P1;PMS_P2;Temp;Humidity;BMP_temperature;BMP_pressure;BME280_temperature;BME280_humidity;BME280_pressure;Samples;Min_cycle;Max_cycle;Signal;HPM_P1;HPM_P2
2024/01/10 00:02:56;;;;;;;7.53;4.28;;;;;;;8.75;87.66;100711.53;10418825;28;97099;-79
2024/01/10 00:08:01;;;;;;;6.63;4.30;;;;;;;8.79;87.35;100713.19;10418498;28;96631;-79
2024/01/10 00:13:05;;;;;;;7.70;3.55;;;;;;;8.76;87.96;100711.50;10418441;28;96665;-79
2024/01/10 00:18:08;;;;;;;7.40;4.10;;;;;;;8.83;87.30;100707.81;10418623;28;96772;-79
2024/01/10 00:23:13;;;;;;;7.55;4.38;;;;;;;8.87;87.19;100711.22;10418106;27;97167;-79
2024/01/10 00:28:17;;;;;;;6.78;4.05;;;;;;;8.90;87.22;100714.63;10417905;28;96697;-79
2024/01/10 00:33:21;;;;;;;5.95;3.75;;;;;;;8.94;87.65;100715.41;10416790;28;98255;-79
2024/01/10 00:38:26;;;;;;;7.88;3.97;;;;;;;8.87;87.10;100698.97;10417523;28;96666;-79
2024/01/10 00:43:29;;;;;;;6.30;4.03;;;;;;;8.82;87.82;100695.59;10375898;28;97206;-79
2024/01/10 00:48:33;;;;;;;7.63;4.43;;;;;;;8.88;87.68;100695.44;10375402;28;96841;-79
2024/01/10 00:53:39;;;;;;;7.47;4.20;;;;;;;8.83;87.34;100688.56;10389266;28;96588;-80
2024/01/10 00:58:42;;;;;;;6.82;4.00;;;;;;;8.83;88.26;100694.69;10417130;28;97253;-79
2024/01/10 01:03:46;;;;;;;8.07;4.82;;;;;;;8.83;87.97;100699.06;10416760;27;97142;-79
2024/01/10 01:08:51;;;;;;;7.85;4.22;;;;;;;8.77;88.29;100694.88;10417378;28;96658;-79
2024/01/10 01:13:54;;;;;;;7.68;4.00;;;;;;;8.83;88.08;100696.44;10416461;28;96773;-79
2024/01/10 01:18:57;;;;;;;6.55;3.90;;;;;;;8.89;87.79;100691.94;10416283;28;96709;-79
2024/01/10 01:24:03;;;;;;;9.20;4.25;;;;;;;8.90;87.86;100687.53;10415100;28;96710;-79
2024/01/10 01:29:08;;;;;;;6.07;4.00;;;;;;;8.89;87.48;100681.44;10415637;28;96603;-79
2024/01/10 01:34:12;;;;;;;;;;;;;;;8.80;87.82;100692.16;10416220;28;96712;-79
2024/01/10 01:39:16;;;;;;;5.65;3.58;;;;;;;8.79;87.50;100679.09;10415965;28;96988;-79
2024/01/10 01:44:20;;;;;;;8.10;3.85;;;;;;;8.79;88.28;100682.53;10415649;28;96820;-79
2024/01/10 01:49:24;;;;;;;6.45;3.90;;;;;;;8.87;87.61;100687.59;10415103;28;96748;-79
2024/01/10 01:54:30;;;;;;;;;;;;;;;8.82;88.00;100690.34;10415749;28;97309;-79
2024/01/10 01:59:34;;;;;;;6.90;4.10;;;;;;;8.81;88.57;100693.88;10416138;28;96727;-79
2024/01/10 02:04:37;;;;;;;6.25;4.00;;;;;;;8.76;88.66;100700.13;10414924;28;96602;-79
2024/01/10 02:09:43;;;;;;;6.18;4.00;;;;;;;8.77;88.00;100707.13;10414963;28;97215;-79
2024/01/10 02:14:46;;;;;;;;;;;;;;;8.85;87.72;100721.75;10412755;27;96660;-79
2024/01/10 02:19:49;;;;;;;6.30;4.00;;;;;;;8.85;87.90;100728.75;10414797;28;96712;-79
2024/01/10 02:24:55;;;;;;;6.57;4.07;;;;;;;8.96;87.31;100738.06;10414265;28;96730;-79
2024/01/10 02:30:00;;;;;;;6.00;4.22;;;;;;;8.95;87.37;100736.38;10414000;28;96774;-79
2024/01/10 02:35:04;;;;;;;;;;;;;;;8.94;88.20;100737.28;10414260;28;96737;-79
2024/01/10 02:40:10;;;;;;;7.20;3.72;;;;;;;8.96;87.87;100737.25;10413938;28;97385;-79
2024/01/10 02:45:14;;;;;;;7.80;4.50;;;;;;;8.86;87.89;100728.72;10413541;28;96977;-79
2024/01/10 02:50:17;;;;;;;9.15;4.70;;;;;;;8.89;88.58;100727.78;10414321;28;96693;-79
2024/01/10 02:55:22;;;;;;;7.43;4.38;;;;;;;8.89;87.88;100723.41;10412704;28;96679;-79
2024/01/10 03:00:26;;;;;;;9.13;5.15;;;;;;;8.77;88.95;100721.09;10413417;28;97097;-79
2024/01/10 03:05:29;;;;;;;8.70;4.70;;;;;;;8.80;88.86;100723.66;10411889;28;97206;-79
2024/01/10 03:10:34;;;;;;;7.68;4.47;;;;;;;8.73;89.06;100727.31;10412768;28;96881;-79
2024/01/10 03:15:37;;;;;;;9.88;4.90;;;;;;;8.76;88.84;100742.09;10412184;28;97078;-79
2024/01/10 03:20:41;;;;;;;7.93;5.15;;;;;;;8.78;89.25;100738.56;10412480;28;96679;-79
2024/01/10 03:25:46;;;;;;;7.82;4.63;;;;;;;8.94;88.85;100747.78;10412678;28;97297;-79
2024/01/10 03:30:50;;;;;;;7.32;4.22;;;;;;;8.93;88.88;100729.44;10412170;28;97437;-79
2024/01/10 03:35:54;;;;;;;8.88;4.78;;;;;;;8.92;87.92;100723.34;10412002;28;96670;-79
2024/01/10 03:40:59;;;;;;;8.57;5.35;;;;;;;8.92;89.05;100723.34;10412528;28;96887;-79
2024/01/10 03:46:02;;;;;;;8.77;4.60;;;;;;;8.85;89.47;100732.25;10411046;28;96752;-79
2024/01/10 03:51:06;;;;;;;7.50;4.50;;;;;;;8.85;89.37;100729.63;10411902;28;96992;-79
2024/01/10 03:56:11;;;;;;;7.80;4.22;;;;;;;8.84;88.98;100732.31;10410735;28;97137;-79
2024/01/10 04:01:14;;;;;;;8.60;5.10;;;;;;;8.85;88.99;100713.03;10411883;28;96749;-79
2024/01/10 04:06:18;;;;;;;8.90;5.25;;;;;;;8.79;89.92;100721.91;10411273;28;97239;-79
2024/01/10 04:11:22;;;;;;;7.38;4.95;;;;;;;8.84;89.85;100735.75;10410871;28;96557;-79
2024/01/10 04:16:27;;;;;;;10.88;5.32;;;;;;;8.90;89.04;100734.75;10410628;28;96698;-79
2024/01/10 04:21:31;;;;;;;8.52;4.53;;;;;;;8.84;89.21;100727.06;10411062;28;97012;-79
2024/01/10 04:26:36;;;;;;;7.78;4.68;;;;;;;8.87;89.13;100725.22;10410419;28;96633;-79
2024/01/10 04:31:39;;;;;;;7.72;4.90;;;;;;;8.79;89.51;100721.06;10411745;28;96947;-79
2024/01/10 04:36:43;;;;;;;10.05;5.18;;;;;;;8.73;90.01;100716.81;10411580;27;96634;-79
2024/01/10 04:41:47;;;;;;;9.95;5.03;;;;;;;8.68;91.48;100707.34;10417931;28;97164;-79
2024/01/10 04:46:51;;;;;;;8.25;5.50;;;;;;;8.64;91.79;100717.03;10416675;22;97043;-79
2024/01/10 04:51:54;;;;;;;9.55;5.57;;;;;;;8.66;91.93;100706.50;10417846;28;97118;-79
2024/01/10 04:56:59;;;;;;;8.05;4.50;;;;;;;8.55;91.68;100722.50;10417089;28;97662;-79
2024/01/10 05:02:03;;;;;;;8.27;5.18;;;;;;;8.53;93.44;100724.28;10417221;28;96578;-79
2024/01/10 05:07:06;;;;;;;9.82;5.20;;;;;;;8.57;92.83;100731.19;10416230;28;96817;-79
2024/01/10 05:12:11;;;;;;;9.95;5.82;;;;;;;8.66;92.84;100740.59;10416963;28;96956;-79
2024/01/10 05:17:15;;;;;;;9.63;5.75;;;;;;;8.64;91.41;100732.78;10416728;28;97550;-79
2024/01/10 05:22:18;;;;;;;9.15;5.57;;;;;;;8.66;92.57;100740.59;10417215;28;96752;-79
2024/01/10 05:27:23;;;;;;;9.63;5.65;;;;;;;8.63;91.91;100732.81;10415999;28;96591;-79
2024/01/10 05:32:26;;;;;;;9.73;4.72;;;;;;;8.64;91.85;100731.91;10415646;28;96805;-79
2024/01/10 05:37:30;;;;;;;11.63;5.63;;;;;;;8.62;92.44;100715.38;10415156;28;97264;-79
2024/01/10 05:42:35;;;;;;;8.77;4.53;;;;;;;8.58;92.36;100722.44;10402593;28;96765;-79
2024/01/10 05:47:38;;;;;;;9.95;5.18;;;;;;;8.56;91.81;100731.25;10400314;28;96856;-79
2024/01/10 05:52:42;;;;;;;8.85;5.30;;;;;;;8.55;92.83;100724.28;10415652;28;97604;-79
2024/01/10 05:57:49;;;;;;;12.30;5.68;;;;;;;8.53;93.15;100729.53;10415407;28;97484;-79
2024/01/10 06:02:52;;;;;;;7.63;4.80;;;;;;;8.66;93.53;100759.84;10415272;28;96869;-79
2024/01/10 06:07:56;;;;;;;10.85;6.07;;;;;;;8.67;92.65;100747.59;10414760;28;96777;-79
2024/01/10 06:13:01;;;;;;;9.43;5.00;;;;;;;8.75;92.64;100762.25;10415448;28;96709;-79
2024/01/10 06:18:04;;;;;;;9.45;5.60;;;;;;;8.83;92.38;100780.41;10414386;28;97353;-79
2024/01/10 06:23:07;;;;;;;8.40;5.28;;;;;;;8.87;92.17;100789.94;10414379;28;97348;-79
2024/01/10 06:28:12;;;;;;;8.75;4.82;;;;;;;8.92;92.38;100806.44;10413550;28;97434;-79
2024/01/10 06:33:16;;;;;;;9.85;5.00;;;;;;;8.97;92.04;100794.06;10413856;28;96717;-79
2024/01/10 06:38:20;;;;;;;8.50;5.38;;;;;;;9.00;91.54;100791.34;10413791;28;96808;-79
2024/01/10 06:43:25;;;;;;;8.30;5.13;;;;;;;9.07;91.48;100806.06;10413765;28;96733;-79
2024/01/10 06:48:29;;;;;;;10.40;5.15;;;;;;;9.09;90.75;100814.75;10386703;28;98230;-79
2024/01/10 06:53:32;;;;;;;8.82;5.32;;;;;;;9.05;91.67;100821.00;10381656;28;96716;-79
2024/01/10 06:58:37;;;;;;;8.02;5.10;;;;;;;9.08;91.13;100826.19;10413241;28;96582;-79
2024/01/10 07:03:40;;;;;;;7.40;4.82;;;;;;;9.10;91.44;100827.00;10413765;28;96616;-79
2024/01/10 07:08:45;;;;;;;8.70;4.72;;;;;;;9.09;90.67;100820.00;10413054;28;96804;-79
2024/01/10 07:13:50;;;;;;;8.57;5.30;;;;;;;9.10;91.43;100804.22;10412574;28;96779;-79
2024/01/10 07:18:53;;;;;;;11.02;4.97;;;;;;;9.11;91.25;100812.97;10411508;28;96910;-79
2024/01/10 07:23:57;;;;;;;8.90;4.80;;;;;;;8.94;91.26;100825.66;10412338;28;96735;-79
2024/01/10 07:29:02;;;;;;;8.25;4.93;;;;;;;8.76;91.92;100829.56;10393127;28;96822;-79
2024/01/10 07:34:05;;;;;;;;;;;;;;;8.68;92.71;100830.63;10412757;28;96586;-79
2024/01/10 07:39:09;;;;;;;11.70;5.82;;;;;;;8.67;93.76;100821.06;10412288;28;97097;-79
2024/01/10 07:44:14;;;;;;;9.55;5.95;;;;;;;8.65;93.25;100807.94;10411788;28;96993;-79
2024/01/10 07:49:18;;;;;;;11.43;5.45;;;;;;;8.73;93.26;100797.28;10411743;28;96663;-79
2024/01/10 07:54:22;;;;;;;10.02;5.57;;;;;;;8.79;92.80;100798.00;10412290;28;96895;-79
2024/01/10 07:59:27;;;;;;;11.00;5.60;;;;;;;8.68;93.24;100807.03;10411723;28;96593;-79
2024/01/10 08:04:31;;;;;;;7.85;4.90;;;;;;;8.64;92.78;100816.72;10412118;28;97354;-79
2024/01/10 08:09:34;;;;;;;10.40;5.78;;;;;;;8.66;92.60;100835.91;10410574;28;97144;-79
2024/01/10 08:14:39;;;;;;;8.75;4.90;;;;;;;8.72;92.28;100851.50;10416253;28;97225;-79
2024/01/10 08:19:43;;;;;;;8.95;4.85;;;;;;;8.81;92.29;100848.69;10418582;28;97302;-79
2024/01/10 08:24:47;;;;;;;10.55;5.43;;;;;;;8.85;91.88;100852.09;10418495;28;96645;-80
2024/01/10 08:29:52;;;;;;;10.00;5.60;;;;;;;8.91;92.72;100858.06;10418270;28;97283;-79
2024/01/10 08:34:55;;;;;;;7.38;4.32;;;;;;;8.96;92.58;100860.59;10417847;28;96655;-79
2024/01/10 08:40:01;;;;;;;8.75;5.03;;;;;;;9.01;91.90;100856.97;10417922;28;96693;-79
2024/01/10 08:45:07;;;;;;;10.77;5.60;;;;;;;9.09;92.35;100857.63;10418217;28;97063;-79
2024/01/10 08:50:11;;;;;;;12.75;6.18;;;;;;;9.11;91.72;100865.47;10417206;28;96794;-79
2024/01/10 08:55:15;;;;;;;9.00;5.78;;;;;;;9.17;91.63;100874.97;10417300;28;96625;-79
2024/01/10 09:00:20;;;;;;;9.05;5.95;;;;;;;9.18;91.92;100874.06;10416460;28;96905;-79
2024/01/10 09:05:24;;;;;;;12.63;5.97;;;;;;;9.26;91.85;100883.50;10417248;28;97076;-79
2024/01/10 09:10:28;;;;;;;11.10;6.03;;;;;;;9.37;91.29;100875.38;10416844;28;96694;-79
2024/01/10 09:15:33;;;;;;;10.47;6.10;;;;;;;9.41;91.40;100884.91;10416369;28;98123;-79
2024/01/10 09:20:37;;;;;;;10.05;5.78;;;;;;;9.53;90.97;100892.47;10416570;28;96779;-79
2024/01/10 09:25:41;;;;;;;11.20;5.88;;;;;;;9.62;90.63;100897.50;10415971;27;96691;-79
2024/01/10 09:30:46;;;;;;;9.93;5.95;;;;;;;9.50;90.96;100922.31;10416315;28;96901;-80
2024/01/10 09:35:49;;;;;;;11.57;6.40;;;;;;;9.41;91.59;100925.19;10416320;27;97496;-79
2024/01/10 09:40:56;;;;;;;9.63;5.80;;;;;;;9.49;91.67;100917.09;10415967;28;96559;-79
2024/01/10 09:46:03;;;;;;;12.05;6.05;;;;;;;9.53;91.42;100922.25;10415080;28;96778;-79
2024/01/10 09:51:06;;;;;;;9.32;5.93;;;;;;;9.57;91.17;100915.16;10414545;28;97137;-79
2024/01/10 09:56:10;;;;;;;9.02;5.68;;;;;;;9.77;91.24;100918.13;10415677;28;96950;-79
2024/01/10 10:01:15;;;;;;;13.45;6.15;;;;;;;9.96;91.44;100909.72;10415361;28;96672;-79
2024/01/10 10:06:20;;;;;;;11.23;6.32;;;;;;;10.13;91.00;100925.91;10414843;28;96741;-79
2024/01/10 10:11:24;;;;;;;9.07;6.15;;;;;;;10.06;90.27;100923.47;10415110;28;97202;-80
2024/01/10 10:16:29;;;;;;;8.35;5.38;;;;;;;10.02;91.43;100919.22;10390135;28;97488;-79
2024/01/10 10:21:33;;;;;;;9.00;6.00;;;;;;;10.02;90.28;100913.97;10414652;28;96724;-79
2024/01/10 10:26:37;;;;;;;9.45;6.45;;;;;;;9.96;91.30;100922.88;10414808;28;96742;-79
2024/01/10 10:31:42;;;;;;;16.95;9.10;;;;;;;10.25;91.05;100929.97;10392548;28;96747;-79
2024/01/10 10:36:45;;;;;;;14.40;8.57;;;;;;;10.59;89.86;100935.16;10400580;27;97256;-79
2024/01/10 10:41:50;;;;;;;17.75;8.93;;;;;;;10.75;89.81;100933.81;10413210;28;97349;-80
2024/01/10 10:46:56;;;;;;;14.23;7.47;;;;;;;10.83;89.08;100923.91;10399671;28;96889;-80
2024/01/10 10:52:15;;;;;;;14.90;7.43;;;;;;;10.87;88.47;100918.50;10388021;28;96846;-79
2024/01/10 10:57:20;;;;;;;16.00;8.70;;;;;;;10.87;88.78;100921.13;10413632;28;97667;-79
2024/01/10 11:02:25;;;;;;;13.02;8.50;;;;;;;10.73;88.15;100919.84;10413449;28;96729;-80
2024/01/10 11:07:36;;;;;;;19.13;9.90;;;;;;;10.69;89.01;100920.81;10413148;28;96965;-80
2024/01/10 11:12:56;;;;;;;15.15;9.02;;;;;;;10.49;89.03;100916.13;10413158;28;96700;-80
2024/01/10 11:18:27;;;;;;;14.25;8.63;;;;;;;10.43;89.44;100913.69;10413408;28;96780;-81
2024/01/10 11:23:41;;;;;;;11.45;7.20;;;;;;;10.39;89.27;100908.53;10412714;28;96755;-82
2024/01/10 11:28:48;;;;;;;9.95;6.53;;;;;;;10.21;90.00;100926.56;10411965;28;97341;-82
2024/01/10 11:33:55;;;;;;;19.40;10.15;;;;;;;10.19;90.92;100925.72;10411671;28;97172;-82
2024/01/10 11:39:02;;;;;;;15.52;9.73;;;;;;;10.14;91.10;100926.78;10412213;28;96598;-80
2024/01/10 11:44:27;;;;;;;12.77;7.50;;;;;;;10.03;90.81;100906.03;10411933;27;97246;-82
2024/01/10 11:49:32;;;;;;;;;;;;;;;10.11;91.38;100908.44;10417173;27;97709;-82
2024/01/10 11:54:40;;;;;;;13.77;7.03;;;;;;;10.28;91.81;100893.09;10419553;28;96599;-81
2024/01/10 11:59:45;;;;;;;19.52;9.23;;;;;;;10.42;91.71;100893.53;10419340;28;97172;-81
2024/01/10 12:04:50;;;;;;;20.23;10.48;;;;;;;10.63;91.31;100884.13;10418988;28;98175;-81
2024/01/10 12:09:54;;;;;;;21.48;11.35;;;;;;;10.89;91.46;100878.94;10419424;28;96894;-81
2024/01/10 12:14:58;;;;;;;20.33;11.48;;;;;;;11.04;90.89;100867.97;10418261;28;96851;-80
2024/01/10 12:20:03;;;;;;;19.63;10.52;;;;;;;11.21;91.60;100868.31;10418847;28;97067;-80
2024/01/10 12:25:07;;;;;;;17.23;10.30;;;;;;;11.40;90.13;100850.97;10417239;28;96705;-80
2024/01/10 12:30:11;;;;;;;22.38;11.10;;;;;;;11.31;90.65;100838.97;10418493;28;97133;-80
2024/01/10 12:35:20;;;;;;;18.77;10.27;;;;;;;11.33;91.46;100836.28;10417475;28;97105;-80
2024/01/10 12:40:23;;;;;;;17.20;9.75;;;;;;;11.49;91.77;100832.22;10417803;28;97211;-80
2024/01/10 12:45:27;;;;;;;22.98;10.45;;;;;;;11.56;92.07;100828.47;10416947;28;96911;-80
2024/01/10 12:50:32;;;;;;;22.90;10.88;;;;;;;11.69;91.68;100815.72;10417637;28;97471;-80
2024/01/10 12:55:35;;;;;;;;;;;;;;;11.77;92.23;100805.78;10417741;28;96597;-80
2024/01/10 13:00:39;;;;;;;19.23;10.05;;;;;;;11.83;92.02;100793.22;10417480;27;96786;-80
2024/01/10 13:05:45;;;;;;;19.27;10.47;;;;;;;11.82;91.11;100780.94;10416807;28;96695;-80
2024/01/10 13:10:49;;;;;;;16.42;9.57;;;;;;;11.94;92.68;100769.09;10416716;28;97440;-81
2024/01/10 13:15:53;;;;;;;18.50;9.27;;;;;;;12.23;92.42;100761.81;10415250;28;96950;-80
2024/01/10 13:20:58;;;;;;;17.05;9.55;;;;;;;12.55;91.91;100749.97;10416607;28;96659;-80
2024/01/10 13:26:02;;;;;;;12.15;6.70;;;;;;;12.69;91.96;100741.56;10415773;28;96846;-80
2024/01/10 13:31:05;;;;;;;15.00;5.65;;;;;;;12.65;91.83;100745.25;10416603;28;96978;-80
2024/01/10 13:36:10;;;;;;;9.55;5.05;;;;;;;12.63;91.68;100736.47;10415965;28;97618;-80
2024/01/10 13:41:14;;;;;;;;;;;;;;;12.62;91.54;100729.50;10416123;28;97348;-80
2024/01/10 13:46:18;;;;;;;7.95;3.63;;;;;;;12.51;91.51;100729.94;10415089;28;96847;-79
2024/01/10 13:51:22;;;;;;;9.20;4.50;;;;;;;12.43;91.86;100724.06;10416706;28;96789;-80
2024/01/10 13:56:28;;;;;;;8.32;4.05;;;;;;;12.42;91.89;100717.97;10415247;28;96958;-79
2024/01/10 14:01:31;;;;;;;11.30;3.58;;;;;;;12.50;91.75;100705.31;10414700;28;97487;-80
2024/01/10 14:06:36;;;;;;;8.27;3.15;;;;;;;12.58;90.88;100691.81;10414085;28;97281;-80
2024/01/10 14:11:40;;;;;;;6.15;2.92;;;;;;;12.60;90.64;100691.75;10414138;28;96704;-80
2024/01/10 14:16:43;;;;;;;10.25;3.78;;;;;;;12.45;90.77;100702.00;10413824;28;96829;-82
2024/01/10 14:21:48;;;;;;;8.48;2.85;;;;;;;12.42;91.68;100696.84;10385720;28;96687;-83
2024/01/10 14:26:54;;;;;;;7.47;3.67;;;;;;;12.31;92.33;100700.81;10372920;28;96738;-83
2024/01/10 14:31:58;;;;;;;7.50;2.80;;;;;;;12.21;93.09;100692.41;10377244;28;96795;-83
2024/01/10 14:37:21;;;;;;;8.60;2.70;;;;;;;12.23;93.73;100680.03;10414151;28;96796;-83
2024/01/10 14:42:25;;;;;;;10.13;3.13;;;;;;;12.21;94.12;100676.59;10414800;28;96866;-84
2024/01/10 14:47:29;;;;;;;5.03;2.90;;;;;;;12.25;94.01;100677.31;10413023;28;96908;-83
2024/01/10 14:52:34;;;;;;;8.48;3.78;;;;;;;12.24;93.80;100676.44;10413488;28;97568;-83
2024/01/10 14:57:37;;;;;;;5.65;2.78;;;;;;;12.17;94.33;100696.06;10412247;28;96626;-82
2024/01/10 15:02:41;;;;;;;5.30;2.83;;;;;;;12.05;94.73;100695.69;10413484;28;96678;-81
2024/01/10 15:07:47;;;;;;;6.60;2.42;;;;;;;11.95;96.19;100707.50;10412871;28;96795;-81
2024/01/10 15:12:51;;;;;;;6.53;2.90;;;;;;;11.86;96.87;100708.72;10413528;28;97348;-82
2024/01/10 15:17:54;;;;;;;6.60;2.70;;;;;;;11.77;97.34;100695.88;10411950;28;96917;-83
2024/01/10 15:22:59;;;;;;;5.85;2.95;;;;;;;11.78;97.86;100710.78;10412476;27;96600;-82
2024/01/10 15:28:03;;;;;;;5.25;2.47;;;;;;;11.82;97.95;100709.75;10412818;28;96803;-82
2024/01/10 15:33:10;;;;;;;3.30;1.85;;;;;;;11.86;97.58;100713.13;10413392;28;96776;-82
2024/01/10 15:38:15;;;;;;;3.50;2.13;;;;;;;11.90;97.41;100701.56;10411842;28;96913;-81
2024/01/10 15:43:19;;;;;;;5.03;2.30;;;;;;;11.91;96.62;100708.56;10412207;28;96861;-82
2024/01/10 15:48:24;;;;;;;5.15;2.15;;;;;;;11.96;96.40;100711.88;10409951;28;97176;-81
2024/01/10 15:53:31;;;;;;;4.93;1.83;;;;;;;11.93;96.27;100712.84;10411470;28;96775;-81
2024/01/10 15:58:35;;;;;;;5.40;1.75;;;;;;;11.98;95.65;100720.56;10411626;28;96733;-81
2024/01/10 16:03:38;;;;;;;4.32;1.50;;;;;;;11.98;95.40;100716.16;10411532;28;96793;-80
2024/01/10 16:08:43;;;;;;;5.60;2.20;;;;;;;12.00;95.35;100702.91;10411636;28;96613;-80
2024/01/10 16:13:47;;;;;;;2.17;1.15;;;;;;;12.01;95.11;100704.66;10410604;28;96894;-80
2024/01/10 16:18:50;;;;;;;4.25;1.52;;;;;;;12.04;94.71;100699.25;10411112;28;97010;-80
2024/01/10 16:23:55;;;;;;;5.72;1.63;;;;;;;12.11;94.52;100698.09;10411651;28;96857;-81
2024/01/10 16:28:58;;;;;;;4.13;1.65;;;;;;;12.11;94.44;100695.47;10410381;28;96732;-80
2024/01/10 16:34:02;;;;;;;4.05;1.90;;;;;;;12.11;94.46;100691.06;10413840;27;96627;-80
2024/01/10 16:39:07;;;;;;;4.53;1.63;;;;;;;12.14;94.36;100679.50;10416800;28;96718;-81
2024/01/10 16:44:10;;;;;;;4.13;2.00;;;;;;;12.20;94.43;100684.56;10417702;28;97290;-80
2024/01/10 16:49:14;;;;;;;4.18;1.88;;;;;;;12.13;94.07;100683.06;10416987;28;96859;-80
2024/01/10 16:54:19;;;;;;;8.25;2.70;;;;;;;12.09;93.97;100681.47;10417517;28;96730;-80
2024/01/10 16:59:23;;;;;;;5.40;2.80;;;;;;;12.02;94.49;100680.00;10417115;28;96714;-80
2024/01/10 17:04:26;;;;;;;7.15;2.97;;;;;;;11.93;94.66;100675.06;10416709;28;96795;-80
2024/01/10 17:09:33;;;;;;;6.45;2.28;;;;;;;11.93;95.21;100672.41;10417107;28;97284;-80
2024/01/10 17:19:39;;;;;;;8.32;2.95;;;;;;;12.02;95.17;100688.78;10329814;28;97000;-80
2024/01/10 17:24:44;;;;;;;7.72;2.97;;;;;;;12.04;94.97;100676.38;10333403;28;96659;-80
2024/01/10 17:29:47;;;;;;;10.98;3.20;;;;;;;12.03;94.50;100676.44;10332417;28;96929;-81
2024/01/10 17:34:50;;;;;;;8.65;2.90;;;;;;;12.00;94.87;100668.63;10332797;28;96690;-81
2024/01/10 17:39:55;;;;;;;7.45;2.92;;;;;;;11.95;94.46;100673.22;10332760;28;96979;-80
2024/01/10 17:44:59;;;;;;;7.78;2.70;;;;;;;11.83;95.20;100666.66;10332713;28;97058;-80
2024/01/10 17:50:03;;;;;;;8.63;2.85;;;;;;;11.86;95.61;100660.38;10332835;28;96628;-80
2024/01/10 17:55:09;;;;;;;4.93;2.30;;;;;;;11.91;95.54;100669.00;10333232;28;97156;-80
2024/01/10 18:00:14;;;;;;;9.25;3.13;;;;;;;11.89;95.05;100668.22;10332407;28;96732;-80
2024/01/10 18:05:17;;;;;;;4.70;1.98;;;;;;;11.92;94.97;100679.50;10332963;28;96776;-80
2024/01/10 18:10:22;;;;;;;4.75;2.30;;;;;;;11.97;95.04;100687.22;10331774;28;96652;-81
2024/01/10 18:15:26;;;;;;;7.43;2.45;;;;;;;11.91;95.39;100683.03;10331367;28;97052;-80
2024/01/10 18:20:29;;;;;;;8.13;2.58;;;;;;;11.90;95.41;100685.72;10330536;28;97445;-80
2024/01/10 18:25:34;;;;;;;6.60;2.50;;;;;;;11.92;95.06;100684.78;10331351;28;96757;-80
2024/01/10 18:30:42;;;;;;;10.40;2.38;;;;;;;11.93;95.49;100680.34;10331140;28;96649;-80
2024/01/10 18:35:46;;;;;;;7.78;2.28;;;;;;;11.98;95.68;100688.94;10331237;28;97192;-80
2024/01/10 18:40:52;;;;;;;7.60;2.60;;;;;;;12.01;95.34;100694.09;10330769;28;96982;-80
2024/01/10 18:45:55;;;;;;;6.47;2.17;;;;;;;12.00;95.33;100697.63;10331300;28;97286;-83
2024/01/10 18:50:59;;;;;;;5.72;1.92;;;;;;;11.96;96.16;100698.69;10331023;28;96837;-79
2024/01/10 18:56:04;;;;;;;7.50;1.55;;;;;;;11.97;97.15;100711.81;10330960;28;96685;-81
2024/01/10 19:01:08;;;;;;;5.90;1.85;;;;;;;11.98;96.89;100731.13;10330571;28;96655;-80
2024/01/10 19:06:15;;;;;;;3.47;1.67;;;;;;;11.91;96.98;100732.31;10330649;28;96915;-83
2024/01/10 19:11:21;;;;;;;3.33;2.00;;;;;;;11.92;96.48;100749.81;10346680;28;97141;-83
2024/01/10 19:16:24;;;;;;;3.85;2.30;;;;;;;11.80;96.92;100739.75;10329728;28;97613;-83
2024/01/10 19:21:27;;;;;;;6.57;1.65;;;;;;;11.72;97.45;100737.38;10329441;28;96701;-85
2024/01/10 19:26:32;;;;;;;3.58;1.95;;;;;;;11.62;97.40;100730.72;10329548;28;97235;-85
2024/01/10 19:31:36;;;;;;;5.15;2.03;;;;;;;11.50;98.48;100723.25;10329693;28;97649;-83
2024/01/10 19:36:41;;;;;;;6.38;1.77;;;;;;;11.46;98.18;100708.47;10330179;28;97219;-82
2024/01/10 19:41:46;;;;;;;4.45;2.00;;;;;;;11.39;98.32;100709.59;10329337;28;96719;-82
2024/01/10 19:46:50;;;;;;;3.33;1.77;;;;;;;11.30;98.86;100718.69;10330044;28;97686;-81
2024/01/10 19:51:53;;;;;;;3.28;1.45;;;;;;;11.25;97.97;100728.53;10329806;28;96931;-81
2024/01/10 19:57:01;;;;;;;3.90;1.77;;;;;;;11.21;98.46;100742.75;10328686;28;96731;-81
2024/01/10 20:02:09;;;;;;;6.72;1.80;;;;;;;11.18;98.18;100748.09;10328107;28;96950;-81
2024/01/10 20:07:13;;;;;;;3.72;1.73;;;;;;;11.23;97.81;100748.78;10347327;28;96781;-81
2024/01/10 20:12:18;;;;;;;5.80;2.80;;;;;;;11.26;97.25;100756.59;10352999;28;96633;-81
2024/01/10 20:17:23;;;;;;;6.88;2.35;;;;;;;11.32;97.45;100752.88;10335797;28;97485;-81
2024/01/10 20:22:26;;;;;;;4.53;2.08;;;;;;;11.34;97.62;100758.97;10335910;28;97215;-81
2024/01/10 20:27:31;;;;;;;3.22;2.00;;;;;;;11.38;97.38;100757.94;10335518;28;97057;-81
2024/01/10 20:32:35;;;;;;;2.38;1.70;;;;;;;11.32;97.00;100751.09;10335605;28;96625;-81
2024/01/10 20:37:38;;;;;;;4.75;2.05;;;;;;;11.27;97.06;100758.31;10335852;28;96836;-81
2024/01/10 20:42:43;;;;;;;5.57;2.60;;;;;;;11.25;97.42;100764.56;10335130;28;96763;-81
2024/01/10 20:47:47;;;;;;;7.32;3.33;;;;;;;11.31;97.32;100762.56;10334234;28;97378;-81
2024/01/10 20:52:51;;;;;;;7.93;3.80;;;;;;;11.22;96.98;100768.16;10334045;28;97333;-81
2024/01/10 20:57:56;;;;;;;7.68;3.00;;;;;;;11.18;97.39;100770.94;10334419;28;96735;-81
2024/01/10 21:02:59;;;;;;;5.97;4.00;;;;;;;11.12;97.00;100772.00;10334340;28;96780;-81
2024/01/10 21:08:03;;;;;;;8.35;2.75;;;;;;;11.10;97.21;100768.56;10334792;28;97112;-81
2024/01/10 21:13:08;;;;;;;4.13;2.20;;;;;;;11.14;97.85;100774.59;10334858;28;96919;-81
2024/01/10 21:18:13;;;;;;;3.42;2.13;;;;;;;11.12;98.14;100779.91;10333346;28;96863;-81
2024/01/10 21:23:16;;;;;;;3.78;2.25;;;;;;;11.10;97.94;100775.59;10334170;28;96610;-81
2024/01/10 21:28:21;;;;;;;4.53;2.53;;;;;;;11.03;97.73;100774.91;10334756;28;97068;-81
2024/01/10 21:33:25;;;;;;;5.07;2.30;;;;;;;10.96;97.68;100776.03;10333703;28;96626;-81
2024/01/10 21:38:28;;;;;;;6.53;2.78;;;;;;;10.97;97.97;100767.19;10334083;28;96935;-81
2024/01/10 21:43:33;;;;;;;6.80;3.05;;;;;;;11.03;98.42;100768.78;10332427;28;97587;-81
2024/01/10 21:48:37;;;;;;;8.05;3.15;;;;;;;11.06;98.11;100764.28;10332996;28;96739;-81
2024/01/10 21:53:40;;;;;;;4.57;2.67;;;;;;;11.05;97.76;100762.56;10332940;28;97460;-81
2024/01/10 21:58:45;;;;;;;4.68;2.92;;;;;;;10.90;97.55;100770.09;10332847;28;96602;-81
2024/01/10 22:03:50;;;;;;;4.07;2.70;;;;;;;10.65;97.90;100771.78;10362802;28;96835;-81
2024/01/10 22:08:53;;;;;;;4.50;2.97;;;;;;;10.48;97.26;100769.69;10363061;28;96660;-81
2024/01/10 22:13:58;;;;;;;3.70;2.55;;;;;;;10.50;97.81;100769.66;10332789;28;97204;-81
2024/01/10 22:19:01;;;;;;;5.57;2.72;;;;;;;10.50;97.65;100775.78;10332579;28;97104;-81
2024/01/10 22:24:07;;;;;;;4.47;2.60;;;;;;;10.41;97.55;100780.44;10331911;28;96666;-81
2024/01/10 22:29:12;;;;;;;7.13;3.53;;;;;;;10.35;97.59;100797.28;10331442;28;97521;-80
2024/01/10 22:34:15;;;;;;;9.98;3.30;;;;;;;10.33;97.05;100804.38;10329599;28;96929;-80
2024/01/10 22:39:19;;;;;;;6.57;3.35;;;;;;;10.40;98.20;100802.41;10331090;28;97687;-81
2024/01/10 22:44:24;;;;;;;10.20;4.93;;;;;;;10.30;97.19;100803.59;10331399;28;97093;-81
2024/01/10 22:49:27;;;;;;;;;;;;;;;10.32;97.99;100804.41;10290688;28;97316;-81
2024/01/10 22:54:30;;;;;;;5.93;3.45;;;;;;;10.28;97.37;100798.41;10290178;28;97379;-81
2024/01/10 22:59:35;;;;;;;8.00;3.83;;;;;;;10.31;97.51;100808.81;10315779;28;96611;-81
2024/01/10 23:04:39;;;;;;;4.97;3.25;;;;;;;10.39;97.44;100798.03;10343787;28;96766;-81
2024/01/10 23:09:42;;;;;;;5.68;3.53;;;;;;;10.42;97.63;100801.44;10331319;28;97018;-81
2024/01/10 23:14:48;;;;;;;10.25;3.42;;;;;;;10.39;97.42;100812.06;10329388;28;96772;-80
2024/01/10 23:19:51;;;;;;;12.52;4.68;;;;;;;10.26;97.65;100816.81;10329785;28;97637;-80
2024/01/10 23:24:54;;;;;;;15.80;3.63;;;;;;;10.20;98.75;100814.38;10328891;28;96660;-81
2024/01/10 23:30:03;;;;;;;8.05;3.70;;;;;;;10.33;98.96;100817.53;10330097;28;96695;-81